sensor_id;sensor_type;location;lat;lon;timestamp;P1;durP1;ratioP1;P2;durP2;ratioP2
18425;SDS011;9340;48.756;9.226;2023-06-05T00:02:12;2.83;;;2.57;;
18425;SDS011;9340;48.756;9.226;2023-06-05T00:04:41;3.57;;;2.77;;
18425;SDS011;9340;48.756;9.226;2023-06-05T00:07:08;3.53;;;3.23;;
18425;SDS011;9340;48.756;9.226;2023-06-05T00:09:36;3.30;;;2.80;;
18425;SDS011;9340;48.756;9.226;2023-06-05T00:12:03;4.97;;;3.10;;
18425;SDS011;9340;48.756;9.226;2023-06-05T00:14:29;3.43;;;3.13;;
18425;SDS011;9340;48.756;9.226;2023-06-05T00:16:56;3.13;;;2.83;;
18425;SDS011;9340;48.756;9.226;2023-06-05T00:19:23;5.43;;;3.00;;
18425;SDS011;9340;48.756;9.226;2023-06-05T00:21:49;3.20;;;2.90;;
18425;SDS011;9340;48.756;9.226;2023-06-05T00:24:17;3.13;;;2.83;;
18425;SDS011;9340;48.756;9.226;2023-06-05T00:26:46;4.23;;;3.40;;
18425;SDS011;9340;48.756;9.226;2023-06-05T00:29:13;3.00;;;2.70;;
18425;SDS011;9340;48.756;9.226;2023-06-05T00:31:39;3.10;;;2.90;;
18425;SDS011;9340;48.756;9.226;2023-06-05T00:34:06;3.07;;;2.87;;
18425;SDS011;9340;48.756;9.226;2023-06-05T00:36:33;3.53;;;3.23;;
18425;SDS011;9340;48.756;9.226;2023-06-05T00:39:02;6.67;;;3.10;;
18425;SDS011;9340;48.756;9.226;2023-06-05T00:41:28;2.73;;;2.53;;
18425;SDS011;9340;48.756;9.226;2023-06-05T00:43:57;3.83;;;3.03;;
18425;SDS011;9340;48.756;9.226;2023-06-05T00:46:24;3.13;;;2.90;;
18425;SDS011;9340;48.756;9.226;2023-06-05T00:48:51;4.53;;;3.03;;
18425;SDS011;9340;48.756;9.226;2023-06-05T00:51:17;3.47;;;3.17;;
18425;SDS011;9340;48.756;9.226;2023-06-05T00:53:45;3.23;;;2.73;;
18425;SDS011;9340;48.756;9.226;2023-06-05T00:56:13;5.90;;;3.20;;
18425;SDS011;9340;48.756;9.226;2023-06-05T00:58:42;4.47;;;3.13;;
18425;SDS011;9340;48.756;9.226;2023-06-05T01:01:10;5.20;;;3.13;;
18425;SDS011;9340;48.756;9.226;2023-06-05T01:03:37;3.33;;;3.03;;
18425;SDS011;9340;48.756;9.226;2023-06-05T01:06:04;4.63;;;3.10;;
18425;SDS011;9340;48.756;9.226;2023-06-05T01:08:31;4.07;;;3.10;;
18425;SDS011;9340;48.756;9.226;2023-06-05T01:11:03;3.10;;;2.80;;
18425;SDS011;9340;48.756;9.226;2023-06-05T01:13:35;2.97;;;2.77;;
18425;SDS011;9340;48.756;9.226;2023-06-05T01:16:05;3.17;;;2.90;;
18425;SDS011;9340;48.756;9.226;2023-06-05T01:18:36;3.30;;;3.00;;
18425;SDS011;9340;48.756;9.226;2023-06-05T01:21:09;3.20;;;2.87;;
18425;SDS011;9340;48.756;9.226;2023-06-05T01:23:40;3.80;;;2.90;;
18425;SDS011;9340;48.756;9.226;2023-06-05T01:26:09;5.07;;;3.17;;
18425;SDS011;9340;48.756;9.226;2023-06-05T01:28:38;5.17;;;3.00;;
18425;SDS011;9340;48.756;9.226;2023-06-05T01:31:08;3.60;;;3.30;;
18425;SDS011;9340;48.756;9.226;2023-06-05T01:33:40;3.63;;;3.23;;
18425;SDS011;9340;48.756;9.226;2023-06-05T01:36:14;6.30;;;2.73;;
18425;SDS011;9340;48.756;9.226;2023-06-05T01:38:43;3.03;;;2.73;;
18425;SDS011;9340;48.756;9.226;2023-06-05T01:41:11;3.70;;;3.30;;
18425;SDS011;9340;48.756;9.226;2023-06-05T01:43:39;3.77;;;3.47;;
18425;SDS011;9340;48.756;9.226;2023-06-05T01:46:07;3.30;;;3.00;;
18425;SDS011;9340;48.756;9.226;2023-06-05T01:48:35;3.23;;;2.93;;
18425;SDS011;9340;48.756;9.226;2023-06-05T01:51:03;4.40;;;3.37;;
18425;SDS011;9340;48.756;9.226;2023-06-05T01:53:30;4.07;;;3.17;;
18425;SDS011;9340;48.756;9.226;2023-06-05T01:55:58;4.13;;;3.40;;
18425;SDS011;9340;48.756;9.226;2023-06-05T01:58:26;3.23;;;2.93;;
18425;SDS011;9340;48.756;9.226;2023-06-05T02:00:53;4.57;;;3.43;;
18425;SDS011;9340;48.756;9.226;2023-06-05T02:03:22;3.90;;;3.13;;
18425;SDS011;9340;48.756;9.226;2023-06-05T02:05:49;3.43;;;3.13;;
18425;SDS011;9340;48.756;9.226;2023-06-05T02:08:16;3.17;;;2.83;;
18425;SDS011;9340;48.756;9.226;2023-06-05T02:10:44;3.30;;;3.00;;
18425;SDS011;9340;48.756;9.226;2023-06-05T02:13:13;4.67;;;2.93;;
18425;SDS011;9340;48.756;9.226;2023-06-05T02:15:40;4.83;;;3.00;;
18425;SDS011;9340;48.756;9.226;2023-06-05T02:18:10;4.73;;;3.07;;
18425;SDS011;9340;48.756;9.226;2023-06-05T02:20:38;4.53;;;2.80;;
18425;SDS011;9340;48.756;9.226;2023-06-05T02:23:06;3.70;;;3.23;;
18425;SDS011;9340;48.756;9.226;2023-06-05T02:25:33;3.83;;;3.30;;
18425;SDS011;9340;48.756;9.226;2023-06-05T02:28:00;4.97;;;3.00;;
18425;SDS011;9340;48.756;9.226;2023-06-05T02:30:28;3.33;;;3.10;;
18425;SDS011;9340;48.756;9.226;2023-06-05T02:32:54;4.40;;;3.30;;
18425;SDS011;9340;48.756;9.226;2023-06-05T02:35:25;6.03;;;3.30;;
18425;SDS011;9340;48.756;9.226;2023-06-05T02:37:52;3.53;;;3.23;;
18425;SDS011;9340;48.756;9.226;2023-06-05T02:40:21;8.80;;;3.33;;
18425;SDS011;9340;48.756;9.226;2023-06-05T02:42:48;3.50;;;3.20;;
18425;SDS011;9340;48.756;9.226;2023-06-05T02:45:15;4.77;;;3.27;;
18425;SDS011;9340;48.756;9.226;2023-06-05T02:47:43;3.73;;;3.33;;
18425;SDS011;9340;48.756;9.226;2023-06-05T02:50:09;4.50;;;3.27;;
18425;SDS011;9340;48.756;9.226;2023-06-05T02:52:36;3.37;;;3.07;;
18425;SDS011;9340;48.756;9.226;2023-06-05T02:55:04;3.13;;;2.83;;
18425;SDS011;9340;48.756;9.226;2023-06-05T02:57:32;4.63;;;3.17;;
18425;SDS011;9340;48.756;9.226;2023-06-05T03:00:06;3.83;;;3.43;;
18425;SDS011;9340;48.756;9.226;2023-06-05T03:02:33;3.97;;;3.00;;
18425;SDS011;9340;48.756;9.226;2023-06-05T03:05:03;3.70;;;3.10;;
18425;SDS011;9340;48.756;9.226;2023-06-05T03:07:31;3.50;;;3.20;;
18425;SDS011;9340;48.756;9.226;2023-06-05T03:09:59;3.87;;;3.17;;
18425;SDS011;9340;48.756;9.226;2023-06-05T03:12:26;4.00;;;3.60;;
18425;SDS011;9340;48.756;9.226;2023-06-05T03:14:52;3.43;;;3.13;;
18425;SDS011;9340;48.756;9.226;2023-06-05T03:17:19;3.93;;;3.60;;
18425;SDS011;9340;48.756;9.226;2023-06-05T03:19:48;4.10;;;3.10;;
18425;SDS011;9340;48.756;9.226;2023-06-05T03:22:16;3.33;;;3.03;;
18425;SDS011;9340;48.756;9.226;2023-06-05T03:24:44;4.03;;;3.13;;
18425;SDS011;9340;48.756;9.226;2023-06-05T03:27:11;3.47;;;3.10;;
18425;SDS011;9340;48.756;9.226;2023-06-05T03:29:38;3.60;;;3.30;;
18425;SDS011;9340;48.756;9.226;2023-06-05T03:32:05;3.87;;;3.43;;
18425;SDS011;9340;48.756;9.226;2023-06-05T03:34:31;3.67;;;3.37;;
18425;SDS011;9340;48.756;9.226;2023-06-05T03:37:01;3.97;;;3.47;;
18425;SDS011;9340;48.756;9.226;2023-06-05T03:39:29;3.80;;;3.40;;
18425;SDS011;9340;48.756;9.226;2023-06-05T03:41:56;3.63;;;3.07;;
18425;SDS011;9340;48.756;9.226;2023-06-05T03:44:22;5.93;;;4.03;;
18425;SDS011;9340;48.756;9.226;2023-06-05T03:46:49;4.93;;;4.43;;
18425;SDS011;9340;48.756;9.226;2023-06-05T03:49:16;4.13;;;3.70;;
18425;SDS011;9340;48.756;9.226;2023-06-05T03:51:43;4.53;;;3.83;;
18425;SDS011;9340;48.756;9.226;2023-06-05T03:54:10;3.03;;;2.83;;
18425;SDS011;9340;48.756;9.226;2023-06-05T03:56:39;4.40;;;3.60;;
18425;SDS011;9340;48.756;9.226;2023-06-05T03:59:08;3.40;;;3.10;;
18425;SDS011;9340;48.756;9.226;2023-06-05T04:01:44;5.10;;;3.97;;
18425;SDS011;9340;48.756;9.226;2023-06-05T04:04:10;5.03;;;4.50;;
18425;SDS011;9340;48.756;9.226;2023-06-05T04:06:40;3.90;;;3.40;;
18425;SDS011;9340;48.756;9.226;2023-06-05T04:09:08;4.67;;;3.40;;
18425;SDS011;9340;48.756;9.226;2023-06-05T04:11:39;4.10;;;3.70;;
18425;SDS011;9340;48.756;9.226;2023-06-05T04:14:06;5.90;;;3.40;;
18425;SDS011;9340;48.756;9.226;2023-06-05T04:16:34;3.33;;;3.03;;
18425;SDS011;9340;48.756;9.226;2023-06-05T04:19:03;4.47;;;3.20;;
18425;SDS011;9340;48.756;9.226;2023-06-05T04:21:31;3.50;;;3.20;;
18425;SDS011;9340;48.756;9.226;2023-06-05T04:23:58;3.90;;;3.60;;
18425;SDS011;9340;48.756;9.226;2023-06-05T04:26:25;3.37;;;3.07;;
18425;SDS011;9340;48.756;9.226;2023-06-05T04:28:53;3.50;;;3.20;;
18425;SDS011;9340;48.756;9.226;2023-06-05T04:31:21;3.60;;;3.30;;
18425;SDS011;9340;48.756;9.226;2023-06-05T04:33:48;3.57;;;3.20;;
18425;SDS011;9340;48.756;9.226;2023-06-05T04:36:14;4.17;;;3.50;;
18425;SDS011;9340;48.756;9.226;2023-06-05T04:38:43;3.60;;;3.30;;
18425;SDS011;9340;48.756;9.226;2023-06-05T04:41:09;5.30;;;3.20;;
18425;SDS011;9340;48.756;9.226;2023-06-05T04:43:36;4.43;;;3.20;;
18425;SDS011;9340;48.756;9.226;2023-06-05T04:46:04;3.83;;;2.97;;
18425;SDS011;9340;48.756;9.226;2023-06-05T04:48:31;3.90;;;3.40;;
18425;SDS011;9340;48.756;9.226;2023-06-05T04:50:59;4.03;;;3.40;;
18425;SDS011;9340;48.756;9.226;2023-06-05T04:53:26;3.73;;;3.43;;
18425;SDS011;9340;48.756;9.226;2023-06-05T04:55:56;6.23;;;3.60;;
18425;SDS011;9340;48.756;9.226;2023-06-05T04:58:25;4.63;;;3.90;;
18425;SDS011;9340;48.756;9.226;2023-06-05T05:00:51;3.30;;;3.00;;
18425;SDS011;9340;48.756;9.226;2023-06-05T05:03:20;3.30;;;3.00;;
18425;SDS011;9340;48.756;9.226;2023-06-05T05:05:46;4.30;;;3.10;;
18425;SDS011;9340;48.756;9.226;2023-06-05T05:08:13;3.30;;;3.00;;
18425;SDS011;9340;48.756;9.226;2023-06-05T05:10:40;3.90;;;3.00;;
18425;SDS011;9340;48.756;9.226;2023-06-05T05:13:07;3.50;;;3.03;;
18425;SDS011;9340;48.756;9.226;2023-06-05T05:15:33;3.63;;;3.27;;
18425;SDS011;9340;48.756;9.226;2023-06-05T05:18:00;3.43;;;3.13;;
18425;SDS011;9340;48.756;9.226;2023-06-05T05:20:29;3.67;;;3.37;;
18425;SDS011;9340;48.756;9.226;2023-06-05T05:22:58;4.53;;;2.87;;
18425;SDS011;9340;48.756;9.226;2023-06-05T05:25:25;3.80;;;3.37;;
18425;SDS011;9340;48.756;9.226;2023-06-05T05:27:52;4.17;;;3.30;;
18425;SDS011;9340;48.756;9.226;2023-06-05T05:30:19;4.93;;;3.50;;
18425;SDS011;9340;48.756;9.226;2023-06-05T05:32:46;3.70;;;3.40;;
18425;SDS011;9340;48.756;9.226;2023-06-05T05:35:12;3.33;;;3.03;;
18425;SDS011;9340;48.756;9.226;2023-06-05T05:37:41;5.50;;;4.00;;
18425;SDS011;9340;48.756;9.226;2023-06-05T05:40:08;4.07;;;3.67;;
18425;SDS011;9340;48.756;9.226;2023-06-05T05:42:35;4.22;;;3.50;;
18425;SDS011;9340;48.756;9.226;2023-06-05T05:45:02;3.97;;;3.20;;
18425;SDS011;9340;48.756;9.226;2023-06-05T05:47:29;3.88;;;3.47;;
18425;SDS011;9340;48.756;9.226;2023-06-05T05:49:56;5.38;;;3.80;;
18425;SDS011;9340;48.756;9.226;2023-06-05T05:52:23;4.72;;;4.32;;
18425;SDS011;9340;48.756;9.226;2023-06-05T05:54:51;5.35;;;4.13;;
18425;SDS011;9340;48.756;9.226;2023-06-05T05:57:18;4.45;;;4.05;;
18425;SDS011;9340;48.756;9.226;2023-06-05T05:59:45;4.72;;;4.30;;
18425;SDS011;9340;48.756;9.226;2023-06-05T06:02:11;4.10;;;3.78;;
18425;SDS011;9340;48.756;9.226;2023-06-05T06:04:38;8.93;;;5.10;;
18425;SDS011;9340;48.756;9.226;2023-06-05T06:07:05;6.05;;;4.88;;
18425;SDS011;9340;48.756;9.226;2023-06-05T06:09:32;5.00;;;4.50;;
18425;SDS011;9340;48.756;9.226;2023-06-05T06:12:00;5.28;;;4.78;;
18425;SDS011;9340;48.756;9.226;2023-06-05T06:14:30;8.05;;;5.05;;
18425;SDS011;9340;48.756;9.226;2023-06-05T06:16:57;8.95;;;5.40;;
18425;SDS011;9340;48.756;9.226;2023-06-05T06:19:24;10.23;;;6.35;;
18425;SDS011;9340;48.756;9.226;2023-06-05T06:21:52;12.30;;;5.95;;
18425;SDS011;9340;48.756;9.226;2023-06-05T06:24:19;8.05;;;6.18;;
18425;SDS011;9340;48.756;9.226;2023-06-05T06:26:46;8.75;;;6.07;;
18425;SDS011;9340;48.756;9.226;2023-06-05T06:29:14;13.05;;;5.95;;
18425;SDS011;9340;48.756;9.226;2023-06-05T06:31:45;7.72;;;5.82;;
18425;SDS011;9340;48.756;9.226;2023-06-05T06:34:12;10.13;;;7.03;;
18425;SDS011;9340;48.756;9.226;2023-06-05T06:36:38;8.30;;;6.78;;
18425;SDS011;9340;48.756;9.226;2023-06-05T06:39:06;10.02;;;6.85;;
18425;SDS011;9340;48.756;9.226;2023-06-05T06:41:34;10.70;;;6.30;;
18425;SDS011;9340;48.756;9.226;2023-06-05T06:44:01;9.88;;;5.70;;
18425;SDS011;9340;48.756;9.226;2023-06-05T06:46:29;6.60;;;5.07;;
18425;SDS011;9340;48.756;9.226;2023-06-05T06:48:56;5.97;;;5.20;;
18425;SDS011;9340;48.756;9.226;2023-06-05T06:51:23;7.40;;;4.40;;
18425;SDS011;9340;48.756;9.226;2023-06-05T06:53:50;6.60;;;4.18;;
18425;SDS011;9340;48.756;9.226;2023-06-05T06:56:16;4.63;;;3.88;;
18425;SDS011;9340;48.756;9.226;2023-06-05T06:58:44;5.97;;;4.13;;
18425;SDS011;9340;48.756;9.226;2023-06-05T07:01:11;4.75;;;3.97;;
18425;SDS011;9340;48.756;9.226;2023-06-05T07:03:41;4.85;;;4.05;;
18425;SDS011;9340;48.756;9.226;2023-06-05T07:06:09;6.03;;;4.47;;
18425;SDS011;9340;48.756;9.226;2023-06-05T07:08:36;3.72;;;3.40;;
18425;SDS011;9340;48.756;9.226;2023-06-05T07:11:03;5.57;;;3.85;;
18425;SDS011;9340;48.756;9.226;2023-06-05T07:13:29;6.07;;;3.90;;
18425;SDS011;9340;48.756;9.226;2023-06-05T07:15:56;4.50;;;3.85;;
18425;SDS011;9340;48.756;9.226;2023-06-05T07:18:23;4.72;;;4.30;;
18425;SDS011;9340;48.756;9.226;2023-06-05T07:20:51;7.47;;;4.68;;
18425;SDS011;9340;48.756;9.226;2023-06-05T07:23:17;6.05;;;4.88;;
18425;SDS011;9340;48.756;9.226;2023-06-05T07:25:44;7.07;;;4.13;;
18425;SDS011;9340;48.756;9.226;2023-06-05T07:28:11;5.97;;;4.40;;
18425;SDS011;9340;48.756;9.226;2023-06-05T07:30:38;6.10;;;4.40;;
18425;SDS011;9340;48.756;9.226;2023-06-05T07:33:08;4.90;;;4.40;;
18425;SDS011;9340;48.756;9.226;2023-06-05T07:35:35;6.53;;;4.45;;
18425;SDS011;9340;48.756;9.226;2023-06-05T07:38:03;5.70;;;4.28;;
18425;SDS011;9340;48.756;9.226;2023-06-05T07:40:30;5.55;;;4.82;;
18425;SDS011;9340;48.756;9.226;2023-06-05T07:42:57;7.35;;;4.78;;
18425;SDS011;9340;48.756;9.226;2023-06-05T07:45:24;4.88;;;4.43;;
18425;SDS011;9340;48.756;9.226;2023-06-05T07:47:51;5.15;;;4.65;;
18425;SDS011;9340;48.756;9.226;2023-06-05T07:50:17;6.28;;;4.43;;
18425;SDS011;9340;48.756;9.226;2023-06-05T07:52:44;5.93;;;4.07;;
18425;SDS011;9340;48.756;9.226;2023-06-05T07:55:12;5.22;;;4.82;;
18425;SDS011;9340;48.756;9.226;2023-06-05T07:57:40;5.38;;;4.82;;
18425;SDS011;9340;48.756;9.226;2023-06-05T08:00:07;5.28;;;4.88;;
18425;SDS011;9340;48.756;9.226;2023-06-05T08:02:36;5.43;;;4.88;;
18425;SDS011;9340;48.756;9.226;2023-06-05T08:05:03;4.63;;;4.10;;
18425;SDS011;9340;48.756;9.226;2023-06-05T08:07:31;5.55;;;5.07;;
18425;SDS011;9340;48.756;9.226;2023-06-05T08:09:58;4.80;;;4.40;;
18425;SDS011;9340;48.756;9.226;2023-06-05T08:12:26;5.75;;;5.18;;
18425;SDS011;9340;48.756;9.226;2023-06-05T08:14:52;4.80;;;4.40;;
18425;SDS011;9340;48.756;9.226;2023-06-05T08:17:19;5.10;;;4.70;;
18425;SDS011;9340;48.756;9.226;2023-06-05T08:19:46;6.07;;;5.47;;
18425;SDS011;9340;48.756;9.226;2023-06-05T08:22:12;6.20;;;4.78;;
18425;SDS011;9340;48.756;9.226;2023-06-05T08:24:39;6.65;;;5.47;;
18425;SDS011;9340;48.756;9.226;2023-06-05T08:27:05;5.43;;;5.03;;
18425;SDS011;9340;48.756;9.226;2023-06-05T08:29:34;6.97;;;4.97;;
18425;SDS011;9340;48.756;9.226;2023-06-05T08:32:02;8.82;;;4.63;;
18425;SDS011;9340;48.756;9.226;2023-06-05T08:34:29;5.93;;;5.32;;
18425;SDS011;9340;48.756;9.226;2023-06-05T08:36:56;6.90;;;4.85;;
18425;SDS011;9340;48.756;9.226;2023-06-05T08:39:23;6.82;;;5.28;;
18425;SDS011;9340;48.756;9.226;2023-06-05T08:41:52;5.90;;;5.40;;
18425;SDS011;9340;48.756;9.226;2023-06-05T08:44:25;6.05;;;5.55;;
18425;SDS011;9340;48.756;9.226;2023-06-05T08:46:54;5.43;;;4.93;;
18425;SDS011;9340;48.756;9.226;2023-06-05T08:49:25;5.65;;;5.15;;
18425;SDS011;9340;48.756;9.226;2023-06-05T08:51:54;5.78;;;5.25;;
18425;SDS011;9340;48.756;9.226;2023-06-05T08:54:23;6.47;;;5.85;;
18425;SDS011;9340;48.756;9.226;2023-06-05T08:56:50;5.75;;;5.18;;
18425;SDS011;9340;48.756;9.226;2023-06-05T08:59:18;6.10;;;5.60;;
18425;SDS011;9340;48.756;9.226;2023-06-05T09:01:49;6.85;;;6.25;;
18425;SDS011;9340;48.756;9.226;2023-06-05T09:04:17;6.60;;;6.10;;
18425;SDS011;9340;48.756;9.226;2023-06-05T09:06:46;5.72;;;4.80;;
18425;SDS011;9340;48.756;9.226;2023-06-05T09:09:14;6.75;;;6.05;;
18425;SDS011;9340;48.756;9.226;2023-06-05T09:11:41;6.28;;;5.40;;
18425;SDS011;9340;48.756;9.226;2023-06-05T09:14:08;6.07;;;5.60;;
18425;SDS011;9340;48.756;9.226;2023-06-05T09:16:36;6.50;;;5.95;;
18425;SDS011;9340;48.756;9.226;2023-06-05T09:19:03;6.65;;;6.00;;
18425;SDS011;9340;48.756;9.226;2023-06-05T09:21:32;6.22;;;5.63;;
18425;SDS011;9340;48.756;9.226;2023-06-05T09:24:09;5.45;;;5.05;;
18425;SDS011;9340;48.756;9.226;2023-06-05T09:26:48;5.85;;;5.40;;
18425;SDS011;9340;48.756;9.226;2023-06-05T09:29:20;7.95;;;5.57;;
18425;SDS011;9340;48.756;9.226;2023-06-05T09:31:48;6.25;;;5.65;;
18425;SDS011;9340;48.756;9.226;2023-06-05T09:34:22;6.38;;;5.78;;
18425;SDS011;9340;48.756;9.226;2023-06-05T09:36:51;6.55;;;5.95;;
18425;SDS011;9340;48.756;9.226;2023-06-05T09:39:20;6.15;;;5.57;;
18425;SDS011;9340;48.756;9.226;2023-06-05T09:41:49;6.18;;;5.68;;
18425;SDS011;9340;48.756;9.226;2023-06-05T09:44:17;6.53;;;5.30;;
18425;SDS011;9340;48.756;9.226;2023-06-05T09:46:50;6.88;;;5.65;;
18425;SDS011;9340;48.756;9.226;2023-06-05T09:49:18;6.68;;;5.57;;
18425;SDS011;9340;48.756;9.226;2023-06-05T09:51:46;6.82;;;5.60;;
18425;SDS011;9340;48.756;9.226;2023-06-05T09:54:14;6.28;;;5.68;;
18425;SDS011;9340;48.756;9.226;2023-06-05T09:56:43;6.15;;;5.65;;
18425;SDS011;9340;48.756;9.226;2023-06-05T09:59:14;5.78;;;5.28;;
18425;SDS011;9340;48.756;9.226;2023-06-05T10:01:45;6.78;;;5.65;;
18425;SDS011;9340;48.756;9.226;2023-06-05T10:04:13;5.10;;;4.70;;
18425;SDS011;9340;48.756;9.226;2023-06-05T10:06:40;5.78;;;5.28;;
18425;SDS011;9340;48.756;9.226;2023-06-05T10:09:08;5.93;;;5.53;;
18425;SDS011;9340;48.756;9.226;2023-06-05T10:11:37;7.53;;;5.75;;
18425;SDS011;9340;48.756;9.226;2023-06-05T10:14:06;6.50;;;5.75;;
18425;SDS011;9340;48.756;9.226;2023-06-05T10:16:35;7.25;;;5.30;;
18425;SDS011;9340;48.756;9.226;2023-06-05T10:19:02;6.30;;;5.72;;
18425;SDS011;9340;48.756;9.226;2023-06-05T10:21:29;6.40;;;5.90;;
18425;SDS011;9340;48.756;9.226;2023-06-05T10:23:57;6.15;;;5.60;;
18425;SDS011;9340;48.756;9.226;2023-06-05T10:26:34;6.63;;;5.97;;
18425;SDS011;9340;48.756;9.226;2023-06-05T10:29:24;6.20;;;5.57;;
18425;SDS011;9340;48.756;9.226;2023-06-05T10:32:03;5.55;;;5.13;;
18425;SDS011;9340;48.756;9.226;2023-06-05T10:34:37;5.78;;;5.07;;
18425;SDS011;9340;48.756;9.226;2023-06-05T10:37:18;7.78;;;5.13;;
18425;SDS011;9340;48.756;9.226;2023-06-05T10:39:58;5.82;;;5.20;;
18425;SDS011;9340;48.756;9.226;2023-06-05T10:42:27;5.72;;;5.22;;
18425;SDS011;9340;48.756;9.226;2023-06-05T10:44:54;4.70;;;4.30;;
18425;SDS011;9340;48.756;9.226;2023-06-05T10:50:21;5.35;;;4.95;;
18425;SDS011;9340;48.756;9.226;2023-06-05T10:52:50;5.90;;;5.43;;
18425;SDS011;9340;48.756;9.226;2023-06-05T10:55:19;5.05;;;4.65;;
18425;SDS011;9340;48.756;9.226;2023-06-05T11:00:34;5.13;;;4.68;;
18425;SDS011;9340;48.756;9.226;2023-06-05T11:03:02;5.03;;;4.60;;
18425;SDS011;9340;48.756;9.226;2023-06-05T11:05:30;4.90;;;4.50;;
18425;SDS011;9340;48.756;9.226;2023-06-05T11:08:10;5.35;;;4.45;;
18425;SDS011;9340;48.756;9.226;2023-06-05T11:13:52;5.50;;;5.00;;
18425;SDS011;9340;48.756;9.226;2023-06-05T11:16:26;6.20;;;4.80;;
18425;SDS011;9340;48.756;9.226;2023-06-05T11:19:02;4.90;;;4.32;;
18425;SDS011;9340;48.756;9.226;2023-06-05T11:22:01;4.90;;;4.50;;
18425;SDS011;9340;48.756;9.226;2023-06-05T11:24:29;6.45;;;4.40;;
18425;SDS011;9340;48.756;9.226;2023-06-05T11:26:56;5.45;;;4.57;;
18425;SDS011;9340;48.756;9.226;2023-06-05T11:29:24;6.20;;;4.55;;
18425;SDS011;9340;48.756;9.226;2023-06-05T11:31:52;4.22;;;3.90;;
18425;SDS011;9340;48.756;9.226;2023-06-05T11:34:18;6.38;;;4.45;;
18425;SDS011;9340;48.756;9.226;2023-06-05T11:36:45;4.63;;;4.10;;
18425;SDS011;9340;48.756;9.226;2023-06-05T11:39:12;4.57;;;4.18;;
18425;SDS011;9340;48.756;9.226;2023-06-05T11:41:43;4.90;;;4.38;;
18425;SDS011;9340;48.756;9.226;2023-06-05T11:44:11;5.85;;;4.88;;
18425;SDS011;9340;48.756;9.226;2023-06-05T11:46:39;4.72;;;4.32;;
18425;SDS011;9340;48.756;9.226;2023-06-05T11:49:08;5.25;;;4.10;;
18425;SDS011;9340;48.756;9.226;2023-06-05T11:51:48;5.05;;;4.60;;
18425;SDS011;9340;48.756;9.226;2023-06-05T11:54:22;4.97;;;4.30;;
18425;SDS011;9340;48.756;9.226;2023-06-05T11:56:58;4.63;;;4.18;;
18425;SDS011;9340;48.756;9.226;2023-06-05T11:59:32;4.95;;;4.45;;
18425;SDS011;9340;48.756;9.226;2023-06-05T12:02:01;5.00;;;4.60;;
18425;SDS011;9340;48.756;9.226;2023-06-05T12:04:28;4.50;;;3.92;;
18425;SDS011;9340;48.756;9.226;2023-06-05T12:06:55;5.05;;;4.63;;
18425;SDS011;9340;48.756;9.226;2023-06-05T12:09:24;5.55;;;5.03;;
18425;SDS011;9340;48.756;9.226;2023-06-05T12:11:51;5.07;;;4.68;;
18425;SDS011;9340;48.756;9.226;2023-06-05T12:14:28;4.72;;;4.35;;
18425;SDS011;9340;48.756;9.226;2023-06-05T12:16:56;4.55;;;4.25;;
18425;SDS011;9340;48.756;9.226;2023-06-05T12:19:24;4.90;;;4.50;;
18425;SDS011;9340;48.756;9.226;2023-06-05T12:21:51;5.18;;;4.50;;
18425;SDS011;9340;48.756;9.226;2023-06-05T12:24:28;4.90;;;4.50;;
18425;SDS011;9340;48.756;9.226;2023-06-05T12:26:57;4.93;;;4.53;;
18425;SDS011;9340;48.756;9.226;2023-06-05T12:29:25;5.18;;;4.63;;
18425;SDS011;9340;48.756;9.226;2023-06-05T12:31:54;5.07;;;4.68;;
18425;SDS011;9340;48.756;9.226;2023-06-05T12:34:39;5.28;;;4.78;;
18425;SDS011;9340;48.756;9.226;2023-06-05T12:37:10;5.05;;;4.60;;
18425;SDS011;9340;48.756;9.226;2023-06-05T12:39:37;5.30;;;4.60;;
18425;SDS011;9340;48.756;9.226;2023-06-05T12:42:05;4.68;;;4.28;;
18425;SDS011;9340;48.756;9.226;2023-06-05T12:44:32;5.15;;;4.60;;
18425;SDS011;9340;48.756;9.226;2023-06-05T12:46:59;7.30;;;4.65;;
18425;SDS011;9340;48.756;9.226;2023-06-05T12:49:26;5.07;;;4.68;;
18425;SDS011;9340;48.756;9.226;2023-06-05T12:51:54;5.75;;;5.25;;
18425;SDS011;9340;48.756;9.226;2023-06-05T12:54:21;4.82;;;4.43;;
18425;SDS011;9340;48.756;9.226;2023-06-05T12:56:48;5.20;;;4.50;;
18425;SDS011;9340;48.756;9.226;2023-06-05T12:59:15;5.32;;;4.72;;
18425;SDS011;9340;48.756;9.226;2023-06-05T13:01:42;5.18;;;4.75;;
18425;SDS011;9340;48.756;9.226;2023-06-05T13:04:08;4.45;;;4.03;;
18425;SDS011;9340;48.756;9.226;2023-06-05T13:06:35;4.93;;;4.53;;
18425;SDS011;9340;48.756;9.226;2023-06-05T13:09:03;5.68;;;5.28;;
18425;SDS011;9340;48.756;9.226;2023-06-05T13:11:30;6.10;;;5.20;;
18425;SDS011;9340;48.756;9.226;2023-06-05T13:13:57;4.97;;;4.57;;
18425;SDS011;9340;48.756;9.226;2023-06-05T13:16:23;5.40;;;5.00;;
18425;SDS011;9340;48.756;9.226;2023-06-05T13:18:50;5.80;;;4.88;;
18425;SDS011;9340;48.756;9.226;2023-06-05T13:21:17;4.88;;;4.50;;
18425;SDS011;9340;48.756;9.226;2023-06-05T13:23:43;6.32;;;5.22;;
18425;SDS011;9340;48.756;9.226;2023-06-05T13:26:11;7.57;;;5.47;;
18425;SDS011;9340;48.756;9.226;2023-06-05T13:28:39;6.15;;;5.40;;
18425;SDS011;9340;48.756;9.226;2023-06-05T13:31:05;5.78;;;4.60;;
18425;SDS011;9340;48.756;9.226;2023-06-05T13:33:33;5.43;;;4.93;;
18425;SDS011;9340;48.756;9.226;2023-06-05T13:35:59;5.32;;;4.93;;
18425;SDS011;9340;48.756;9.226;2023-06-05T13:38:26;5.70;;;5.20;;
18425;SDS011;9340;48.756;9.226;2023-06-05T13:40:53;5.32;;;4.50;;
18425;SDS011;9340;48.756;9.226;2023-06-05T13:43:21;6.38;;;5.20;;
18425;SDS011;9340;48.756;9.226;2023-06-05T13:45:47;5.60;;;5.03;;
18425;SDS011;9340;48.756;9.226;2023-06-05T13:48:14;5.47;;;5.07;;
18425;SDS011;9340;48.756;9.226;2023-06-05T13:50:41;5.70;;;5.20;;
18425;SDS011;9340;48.756;9.226;2023-06-05T13:53:08;5.90;;;5.40;;
18425;SDS011;9340;48.756;9.226;2023-06-05T13:55:35;5.80;;;5.20;;
18425;SDS011;9340;48.756;9.226;2023-06-05T13:58:02;5.68;;;5.18;;
18425;SDS011;9340;48.756;9.226;2023-06-05T14:00:30;5.85;;;5.00;;
18425;SDS011;9340;48.756;9.226;2023-06-05T14:02:57;5.57;;;5.00;;
18425;SDS011;9340;48.756;9.226;2023-06-05T14:05:24;5.70;;;5.20;;
18425;SDS011;9340;48.756;9.226;2023-06-05T14:07:52;5.25;;;4.80;;
18425;SDS011;9340;48.756;9.226;2023-06-05T14:10:20;6.55;;;5.28;;
18425;SDS011;9340;48.756;9.226;2023-06-05T14:12:48;5.78;;;5.28;;
18425;SDS011;9340;48.756;9.226;2023-06-05T14:15:15;6.55;;;5.32;;
18425;SDS011;9340;48.756;9.226;2023-06-05T14:17:44;6.50;;;5.90;;
18425;SDS011;9340;48.756;9.226;2023-06-05T14:20:11;5.65;;;5.18;;
18425;SDS011;9340;48.756;9.226;2023-06-05T14:22:38;6.03;;;5.53;;
18425;SDS011;9340;48.756;9.226;2023-06-05T14:25:06;6.57;;;4.88;;
18425;SDS011;9340;48.756;9.226;2023-06-05T14:27:33;5.55;;;5.13;;
18425;SDS011;9340;48.756;9.226;2023-06-05T14:30:00;6.78;;;5.10;;
18425;SDS011;9340;48.756;9.226;2023-06-05T14:32:27;5.72;;;5.22;;
18425;SDS011;9340;48.756;9.226;2023-06-05T14:34:55;5.57;;;5.00;;
18425;SDS011;9340;48.756;9.226;2023-06-05T14:37:21;5.55;;;5.05;;
18425;SDS011;9340;48.756;9.226;2023-06-05T14:39:48;5.40;;;4.93;;
18425;SDS011;9340;48.756;9.226;2023-06-05T14:42:16;6.00;;;5.15;;
18425;SDS011;9340;48.756;9.226;2023-06-05T14:44:42;5.20;;;4.80;;
18425;SDS011;9340;48.756;9.226;2023-06-05T14:47:09;9.25;;;5.22;;
18425;SDS011;9340;48.756;9.226;2023-06-05T14:49:36;6.65;;;5.30;;
18425;SDS011;9340;48.756;9.226;2023-06-05T14:52:04;5.22;;;4.82;;
18425;SDS011;9340;48.756;9.226;2023-06-05T14:54:31;5.55;;;5.05;;
18425;SDS011;9340;48.756;9.226;2023-06-05T14:56:58;5.90;;;5.40;;
18425;SDS011;9340;48.756;9.226;2023-06-05T14:59:24;5.65;;;5.15;;
18425;SDS011;9340;48.756;9.226;2023-06-05T15:01:51;4.97;;;4.57;;
18425;SDS011;9340;48.756;9.226;2023-06-05T15:04:18;5.00;;;4.60;;
18425;SDS011;9340;48.756;9.226;2023-06-05T15:06:44;5.20;;;4.80;;
18425;SDS011;9340;48.756;9.226;2023-06-05T15:09:12;5.70;;;5.00;;
18425;SDS011;9340;48.756;9.226;2023-06-05T15:11:39;5.90;;;4.65;;
18425;SDS011;9340;48.756;9.226;2023-06-05T15:14:06;4.72;;;4.35;;
18425;SDS011;9340;48.756;9.226;2023-06-05T15:16:32;5.07;;;4.68;;